sensor_id;sensor_type;location;lat;lon;timestamp;temperature;humidity
19168;DHT22;9716;53.114;18.040;2022-07-10T00:01:21;16.10;99.90
19168;DHT22;9716;53.114;18.040;2022-07-10T00:03:52;16.10;99.90
19168;DHT22;9716;53.114;18.040;2022-07-10T00:06:22;16.10;99.90
19168;DHT22;9716;53.114;18.040;2022-07-10T00:08:51;16.00;99.90
19168;DHT22;9716;53.114;18.040;2022-07-10T00:11:21;16.10;99.90
19168;DHT22;9716;53.114;18.040;2022-07-10T00:13:53;16.10;99.90
19168;DHT22;9716;53.114;18.040;2022-07-10T00:16:27;16.00;99.90
19168;DHT22;9716;53.114;18.040;2022-07-10T00:19:02;16.00;99.90
19168;DHT22;9716;53.114;18.040;2022-07-10T00:21:31;16.00;99.90
19168;DHT22;9716;53.114;18.040;2022-07-10T00:24:04;16.00;99.90
19168;DHT22;9716;53.114;18.040;2022-07-10T00:26:35;16.00;99.90
19168;DHT22;9716;53.114;18.040;2022-07-10T00:29:06;16.00;99.90
19168;DHT22;9716;53.114;18.040;2022-07-10T00:31:41;16.00;99.90
19168;DHT22;9716;53.114;18.040;2022-07-10T00:34:12;16.00;99.90
19168;DHT22;9716;53.114;18.040;2022-07-10T00:36:40;16.00;99.90
19168;DHT22;9716;53.114;18.040;2022-07-10T00:39:10;16.00;99.90
19168;DHT22;9716;53.114;18.040;2022-07-10T00:41:39;16.00;99.90
19168;DHT22;9716;53.114;18.040;2022-07-10T00:44:10;16.00;99.90
19168;DHT22;9716;53.114;18.040;2022-07-10T00:46:39;15.90;99.90
19168;DHT22;9716;53.114;18.040;2022-07-10T00:49:09;15.90;99.90
19168;DHT22;9716;53.114;18.040;2022-07-10T00:51:39;15.90;99.90
19168;DHT22;9716;53.114;18.040;2022-07-10T00:54:08;15.90;99.90
19168;DHT22;9716;53.114;18.040;2022-07-10T00:56:37;15.90;99.90
19168;DHT22;9716;53.114;18.040;2022-07-10T00:59:06;15.90;99.90
19168;DHT22;9716;53.114;18.040;2022-07-10T01:01:35;15.90;99.90
19168;DHT22;9716;53.114;18.040;2022-07-10T01:04:05;15.90;99.90
19168;DHT22;9716;53.114;18.040;2022-07-10T01:06:40;15.90;99.90
19168;DHT22;9716;53.114;18.040;2022-07-10T01:09:09;15.90;99.90
19168;DHT22;9716;53.114;18.040;2022-07-10T01:11:38;15.90;99.90
19168;DHT22;9716;53.114;18.040;2022-07-10T01:14:07;15.90;99.90
19168;DHT22;9716;53.114;18.040;2022-07-10T01:16:39;15.90;99.90
19168;DHT22;9716;53.114;18.040;2022-07-10T01:19:09;15.90;99.90
19168;DHT22;9716;53.114;18.040;2022-07-10T01:21:39;15.90;99.90
19168;DHT22;9716;53.114;18.040;2022-07-10T01:24:11;15.80;99.90
19168;DHT22;9716;53.114;18.040;2022-07-10T01:26:40;15.80;99.90
19168;DHT22;9716;53.114;18.040;2022-07-10T01:29:11;15.80;99.90
19168;DHT22;9716;53.114;18.040;2022-07-10T01:31:40;15.80;99.90
19168;DHT22;9716;53.114;18.040;2022-07-10T01:34:09;15.70;99.90
19168;DHT22;9716;53.114;18.040;2022-07-10T01:36:43;16.10;99.90
19168;DHT22;9716;53.114;18.040;2022-07-10T01:39:12;15.70;99.90
19168;DHT22;9716;53.114;18.040;2022-07-10T01:41:41;15.70;99.90
19168;DHT22;9716;53.114;18.040;2022-07-10T01:44:09;15.70;99.90
19168;DHT22;9716;53.114;18.040;2022-07-10T01:46:44;15.60;99.90
19168;DHT22;9716;53.114;18.040;2022-07-10T01:49:14;15.70;99.90
19168;DHT22;9716;53.114;18.040;2022-07-10T01:51:44;15.60;99.90
19168;DHT22;9716;53.114;18.040;2022-07-10T01:54:13;15.60;99.90
19168;DHT22;9716;53.114;18.040;2022-07-10T01:56:43;15.60;99.90
19168;DHT22;9716;53.114;18.040;2022-07-10T01:59:12;15.50;99.90
19168;DHT22;9716;53.114;18.040;2022-07-10T02:01:40;15.50;99.90
19168;DHT22;9716;53.114;18.040;2022-07-10T02:04:09;15.50;99.90
19168;DHT22;9716;53.114;18.040;2022-07-10T02:06:57;15.50;99.90
19168;DHT22;9716;53.114;18.040;2022-07-10T02:09:28;15.40;99.90
19168;DHT22;9716;53.114;18.040;2022-07-10T02:12:00;15.40;99.90
19168;DHT22;9716;53.114;18.040;2022-07-10T02:14:32;15.30;99.90
19168;DHT22;9716;53.114;18.040;2022-07-10T02:17:01;15.30;99.90
19168;DHT22;9716;53.114;18.040;2022-07-10T02:19:36;15.30;99.90
19168;DHT22;9716;53.114;18.040;2022-07-10T02:22:07;15.10;99.90
19168;DHT22;9716;53.114;18.040;2022-07-10T02:24:39;15.30;99.90
19168;DHT22;9716;53.114;18.040;2022-07-10T02:27:08;15.20;99.90
19168;DHT22;9716;53.114;18.040;2022-07-10T02:29:37;15.20;99.90
19168;DHT22;9716;53.114;18.040;2022-07-10T02:32:07;15.20;99.90
19168;DHT22;9716;53.114;18.040;2022-07-10T02:34:36;15.20;99.90
19168;DHT22;9716;53.114;18.040;2022-07-10T02:37:08;15.20;99.90
19168;DHT22;9716;53.114;18.040;2022-07-10T02:39:37;15.20;99.90
19168;DHT22;9716;53.114;18.040;2022-07-10T02:42:07;15.20;99.90
19168;DHT22;9716;53.114;18.040;2022-07-10T02:44:37;15.20;99.90
19168;DHT22;9716;53.114;18.040;2022-07-10T02:47:09;15.20;99.90
19168;DHT22;9716;53.114;18.040;2022-07-10T02:49:38;15.20;99.90
19168;DHT22;9716;53.114;18.040;2022-07-10T02:52:11;15.20;99.90
19168;DHT22;9716;53.114;18.040;2022-07-10T02:54:43;15.20;99.90
19168;DHT22;9716;53.114;18.040;2022-07-10T02:57:18;15.20;99.90
19168;DHT22;9716;53.114;18.040;2022-07-10T02:59:47;15.30;99.90
19168;DHT22;9716;53.114;18.040;2022-07-10T03:02:19;15.30;99.90
19168;DHT22;9716;53.114;18.040;2022-07-10T03:04:48;15.30;99.90
19168;DHT22;9716;53.114;18.040;2022-07-10T03:07:18;15.30;99.90
19168;DHT22;9716;53.114;18.040;2022-07-10T03:09:47;15.30;99.90
19168;DHT22;9716;53.114;18.040;2022-07-10T03:12:17;15.30;99.90
19168;DHT22;9716;53.114;18.040;2022-07-10T03:14:46;15.30;99.90
19168;DHT22;9716;53.114;18.040;2022-07-10T03:17:14;15.30;99.90
19168;DHT22;9716;53.114;18.040;2022-07-10T03:19:44;15.30;99.90
19168;DHT22;9716;53.114;18.040;2022-07-10T03:22:12;15.40;99.90
19168;DHT22;9716;53.114;18.040;2022-07-10T03:24:42;15.30;99.90
19168;DHT22;9716;53.114;18.040;2022-07-10T03:27:14;15.40;99.90
19168;DHT22;9716;53.114;18.040;2022-07-10T03:29:43;15.50;99.90
19168;DHT22;9716;53.114;18.040;2022-07-10T03:32:12;15.60;99.90
19168;DHT22;9716;53.114;18.040;2022-07-10T03:34:41;15.70;99.90
19168;DHT22;9716;53.114;18.040;2022-07-10T03:37:10;15.80;99.90
19168;DHT22;9716;53.114;18.040;2022-07-10T03:39:39;16.00;99.90
19168;DHT22;9716;53.114;18.040;2022-07-10T03:42:09;16.10;99.90
19168;DHT22;9716;53.114;18.040;2022-07-10T03:44:38;16.30;99.90
19168;DHT22;9716;53.114;18.040;2022-07-10T03:47:06;16.30;99.90
19168;DHT22;9716;53.114;18.040;2022-07-10T03:49:39;16.30;99.90
19168;DHT22;9716;53.114;18.040;2022-07-10T03:52:08;16.30;99.90
19168;DHT22;9716;53.114;18.040;2022-07-10T03:54:37;16.30;99.90
19168;DHT22;9716;53.114;18.040;2022-07-10T03:57:11;16.30;99.90
19168;DHT22;9716;53.114;18.040;2022-07-10T03:59:57;16.30;99.90
19168;DHT22;9716;53.114;18.040;2022-07-10T04:02:26;16.30;99.90
19168;DHT22;9716;53.114;18.040;2022-07-10T04:04:58;16.30;99.90
19168;DHT22;9716;53.114;18.040;2022-07-10T04:07:27;16.30;99.90
19168;DHT22;9716;53.114;18.040;2022-07-10T04:09:55;16.30;99.90
19168;DHT22;9716;53.114;18.040;2022-07-10T04:12:26;16.60;99.90
19168;DHT22;9716;53.114;18.040;2022-07-10T04:14:57;16.40;99.90
19168;DHT22;9716;53.114;18.040;2022-07-10T04:17:28;16.30;99.90
19168;DHT22;9716;53.114;18.040;2022-07-10T04:19:56;16.30;99.90
19168;DHT22;9716;53.114;18.040;2022-07-10T04:22:27;16.30;99.90
19168;DHT22;9716;53.114;18.040;2022-07-10T04:24:56;16.30;99.90
19168;DHT22;9716;53.114;18.040;2022-07-10T04:27:29;16.30;99.90
19168;DHT22;9716;53.114;18.040;2022-07-10T04:29:58;16.40;99.90
19168;DHT22;9716;53.114;18.040;2022-07-10T04:32:28;16.30;99.90
19168;DHT22;9716;53.114;18.040;2022-07-10T04:34:56;16.40;99.90
19168;DHT22;9716;53.114;18.040;2022-07-10T04:37:28;16.40;99.90
19168;DHT22;9716;53.114;18.040;2022-07-10T04:39:57;16.50;99.90
19168;DHT22;9716;53.114;18.040;2022-07-10T04:42:28;16.50;99.90
19168;DHT22;9716;53.114;18.040;2022-07-10T04:44:57;16.60;99.90
19168;DHT22;9716;53.114;18.040;2022-07-10T04:47:25;16.60;99.90
19168;DHT22;9716;53.114;18.040;2022-07-10T04:49:54;16.60;99.90
19168;DHT22;9716;53.114;18.040;2022-07-10T04:52:31;16.60;99.90
19168;DHT22;9716;53.114;18.040;2022-07-10T04:55:03;16.60;99.90
19168;DHT22;9716;53.114;18.040;2022-07-10T04:57:33;16.60;99.90
19168;DHT22;9716;53.114;18.040;2022-07-10T05:00:03;16.70;99.90
19168;DHT22;9716;53.114;18.040;2022-07-10T05:02:32;16.70;99.90
19168;DHT22;9716;53.114;18.040;2022-07-10T05:05:05;16.80;99.90
19168;DHT22;9716;53.114;18.040;2022-07-10T05:07:34;16.90;99.90
19168;DHT22;9716;53.114;18.040;2022-07-10T05:10:07;17.00;99.90
19168;DHT22;9716;53.114;18.040;2022-07-10T05:12:37;17.10;99.90
19168;DHT22;9716;53.114;18.040;2022-07-10T05:15:07;17.30;99.90
19168;DHT22;9716;53.114;18.040;2022-07-10T05:17:36;17.50;99.90
19168;DHT22;9716;53.114;18.040;2022-07-10T05:20:07;17.70;99.90
19168;DHT22;9716;53.114;18.040;2022-07-10T05:22:39;18.00;99.90
19168;DHT22;9716;53.114;18.040;2022-07-10T05:25:10;18.40;99.90
19168;DHT22;9716;53.114;18.040;2022-07-10T05:27:44;18.70;99.90
19168;DHT22;9716;53.114;18.040;2022-07-10T05:30:14;18.90;99.90
19168;DHT22;9716;53.114;18.040;2022-07-10T05:32:43;19.10;99.90
19168;DHT22;9716;53.114;18.040;2022-07-10T05:35:16;19.10;99.90
19168;DHT22;9716;53.114;18.040;2022-07-10T05:37:48;19.20;99.90
19168;DHT22;9716;53.114;18.040;2022-07-10T05:40:17;19.10;99.90
19168;DHT22;9716;53.114;18.040;2022-07-10T05:42:48;19.20;99.90
19168;DHT22;9716;53.114;18.040;2022-07-10T05:45:17;19.50;99.90
19168;DHT22;9716;53.114;18.040;2022-07-10T05:47:46;20.00;99.90
19168;DHT22;9716;53.114;18.040;2022-07-10T05:50:15;20.50;99.90
19168;DHT22;9716;53.114;18.040;2022-07-10T05:52:46;20.90;99.90
19168;DHT22;9716;53.114;18.040;2022-07-10T05:55:15;21.20;99.90
19168;DHT22;9716;53.114;18.040;2022-07-10T05:57:44;21.20;99.90
19168;DHT22;9716;53.114;18.040;2022-07-10T06:00:15;21.10;99.90
19168;DHT22;9716;53.114;18.040;2022-07-10T06:02:48;21.20;99.90
19168;DHT22;9716;53.114;18.040;2022-07-10T06:05:17;21.20;99.90
19168;DHT22;9716;53.114;18.040;2022-07-10T06:07:46;21.40;99.90
19168;DHT22;9716;53.114;18.040;2022-07-10T06:10:16;21.50;99.90
19168;DHT22;9716;53.114;18.040;2022-07-10T06:12:48;21.50;99.90
19168;DHT22;9716;53.114;18.040;2022-07-10T06:15:20;21.40;99.90
19168;DHT22;9716;53.114;18.040;2022-07-10T06:17:49;21.40;99.90
19168;DHT22;9716;53.114;18.040;2022-07-10T06:20:17;21.30;99.90
19168;DHT22;9716;53.114;18.040;2022-07-10T06:22:46;21.30;99.90
19168;DHT22;9716;53.114;18.040;2022-07-10T06:25:15;21.30;99.90
19168;DHT22;9716;53.114;18.040;2022-07-10T06:27:44;21.30;99.90
19168;DHT22;9716;53.114;18.040;2022-07-10T06:30:17;21.30;99.90
19168;DHT22;9716;53.114;18.040;2022-07-10T06:32:46;21.30;99.90
19168;DHT22;9716;53.114;18.040;2022-07-10T06:35:15;21.20;99.90
19168;DHT22;9716;53.114;18.040;2022-07-10T06:37:47;21.00;99.90
19168;DHT22;9716;53.114;18.040;2022-07-10T06:40:20;20.80;99.90
19168;DHT22;9716;53.114;18.040;2022-07-10T06:42:49;20.50;99.90
19168;DHT22;9716;53.114;18.040;2022-07-10T06:45:20;20.30;99.90
19168;DHT22;9716;53.114;18.040;2022-07-10T06:47:49;20.20;99.90
19168;DHT22;9716;53.114;18.040;2022-07-10T06:50:26;20.20;99.90
19168;DHT22;9716;53.114;18.040;2022-07-10T06:52:57;20.40;99.90
19168;DHT22;9716;53.114;18.040;2022-07-10T06:55:26;20.50;99.90
19168;DHT22;9716;53.114;18.040;2022-07-10T06:57:56;20.60;99.90
19168;DHT22;9716;53.114;18.040;2022-07-10T07:00:26;20.80;99.90
19168;DHT22;9716;53.114;18.040;2022-07-10T07:02:55;20.90;99.90
19168;DHT22;9716;53.114;18.040;2022-07-10T07:05:26;20.90;99.90
19168;DHT22;9716;53.114;18.040;2022-07-10T07:07:58;20.90;99.90
19168;DHT22;9716;53.114;18.040;2022-07-10T07:10:27;20.70;99.90
19168;DHT22;9716;53.114;18.040;2022-07-10T07:12:58;20.60;99.90
19168;DHT22;9716;53.114;18.040;2022-07-10T07:15:33;20.50;99.90
19168;DHT22;9716;53.114;18.040;2022-07-10T07:18:05;20.10;99.90
19168;DHT22;9716;53.114;18.040;2022-07-10T07:20:40;20.20;99.90
19168;DHT22;9716;53.114;18.040;2022-07-10T07:23:26;20.40;99.90
19168;DHT22;9716;53.114;18.040;2022-07-10T07:25:57;20.60;99.90
19168;DHT22;9716;53.114;18.040;2022-07-10T07:28:26;20.80;99.90
19168;DHT22;9716;53.114;18.040;2022-07-10T07:30:56;21.00;99.90
19168;DHT22;9716;53.114;18.040;2022-07-10T07:33:29;20.90;99.90
19168;DHT22;9716;53.114;18.040;2022-07-10T07:35:58;20.80;99.90
19168;DHT22;9716;53.114;18.040;2022-07-10T07:38:27;20.60;99.90
19168;DHT22;9716;53.114;18.040;2022-07-10T07:40:56;20.40;99.90
19168;DHT22;9716;53.114;18.040;2022-07-10T07:43:25;20.20;99.90
19168;DHT22;9716;53.114;18.040;2022-07-10T07:45:56;19.90;99.90
19168;DHT22;9716;53.114;18.040;2022-07-10T07:48:27;19.80;99.90
19168;DHT22;9716;53.114;18.040;2022-07-10T07:50:55;19.60;99.90
19168;DHT22;9716;53.114;18.040;2022-07-10T07:53:29;19.60;99.90
19168;DHT22;9716;53.114;18.040;2022-07-10T07:55:59;19.60;99.90
19168;DHT22;9716;53.114;18.040;2022-07-10T07:58:30;19.60;99.90
19168;DHT22;9716;53.114;18.040;2022-07-10T08:01:01;19.90;99.90
19168;DHT22;9716;53.114;18.040;2022-07-10T08:03:30;20.30;99.90
19168;DHT22;9716;53.114;18.040;2022-07-10T08:06:22;20.80;99.90
19168;DHT22;9716;53.114;18.040;2022-07-10T08:08:53;21.40;99.90
19168;DHT22;9716;53.114;18.040;2022-07-10T08:11:22;21.80;99.90
19168;DHT22;9716;53.114;18.040;2022-07-10T08:13:54;22.00;99.90
19168;DHT22;9716;53.114;18.040;2022-07-10T08:16:27;22.10;99.90
19168;DHT22;9716;53.114;18.040;2022-07-10T08:18:57;22.10;99.90
19168;DHT22;9716;53.114;18.040;2022-07-10T08:21:26;22.00;99.90
19168;DHT22;9716;53.114;18.040;2022-07-10T08:23:56;22.00;99.90
19168;DHT22;9716;53.114;18.040;2022-07-10T08:26:25;22.30;99.90
19168;DHT22;9716;53.114;18.040;2022-07-10T08:28:53;22.20;99.90
19168;DHT22;9716;53.114;18.040;2022-07-10T08:31:23;22.50;99.90
19168;DHT22;9716;53.114;18.040;2022-07-10T08:33:53;23.10;99.90
19168;DHT22;9716;53.114;18.040;2022-07-10T08:36:28;23.90;99.90
19168;DHT22;9716;53.114;18.040;2022-07-10T08:39:09;24.40;99.90
19168;DHT22;9716;53.114;18.040;2022-07-10T08:41:38;24.80;98.40
19168;DHT22;9716;53.114;18.040;2022-07-10T08:44:08;24.80;97.10
19168;DHT22;9716;53.114;18.040;2022-07-10T08:46:42;24.70;96.40
19168;DHT22;9716;53.114;18.040;2022-07-10T08:49:13;24.50;96.30
19168;DHT22;9716;53.114;18.040;2022-07-10T08:52:11;24.20;96.10
19168;DHT22;9716;53.114;18.040;2022-07-10T08:54:44;23.90;96.00
19168;DHT22;9716;53.114;18.040;2022-07-10T08:57:15;23.70;96.10
19168;DHT22;9716;53.114;18.040;2022-07-10T08:59:45;23.40;96.20
19168;DHT22;9716;53.114;18.040;2022-07-10T09:02:14;23.10;97.20
19168;DHT22;9716;53.114;18.040;2022-07-10T09:04:44;22.70;98.00
19168;DHT22;9716;53.114;18.040;2022-07-10T09:07:18;22.40;98.70
19168;DHT22;9716;53.114;18.040;2022-07-10T09:09:53;22.20;99.20
19168;DHT22;9716;53.114;18.040;2022-07-10T09:12:23;22.00;99.40
19168;DHT22;9716;53.114;18.040;2022-07-10T09:15:06;22.00;99.70
19168;DHT22;9716;53.114;18.040;2022-07-10T09:17:50;21.80;99.80
19168;DHT22;9716;53.114;18.040;2022-07-10T09:20:28;21.80;99.90
19168;DHT22;9716;53.114;18.040;2022-07-10T09:23:09;21.70;99.90
19168;DHT22;9716;53.114;18.040;2022-07-10T09:25:42;21.70;99.90
19168;DHT22;9716;53.114;18.040;2022-07-10T09:28:13;21.70;99.90
19168;DHT22;9716;53.114;18.040;2022-07-10T09:30:50;21.70;99.90
19168;DHT22;9716;53.114;18.040;2022-07-10T09:33:22;21.70;99.90
19168;DHT22;9716;53.114;18.040;2022-07-10T09:36:07;21.70;99.90
19168;DHT22;9716;53.114;18.040;2022-07-10T09:38:51;21.80;99.90
19168;DHT22;9716;53.114;18.040;2022-07-10T09:41:26;22.10;99.90
19168;DHT22;9716;53.114;18.040;2022-07-10T09:43:57;22.50;99.90
19168;DHT22;9716;53.114;18.040;2022-07-10T09:46:28;22.80;99.60
19168;DHT22;9716;53.114;18.040;2022-07-10T09:49:08;23.20;98.80
19168;DHT22;9716;53.114;18.040;2022-07-10T09:51:39;23.50;98.10
19168;DHT22;9716;53.114;18.040;2022-07-10T09:54:15;23.70;97.40
19168;DHT22;9716;53.114;18.040;2022-07-10T10:00:30;24.20;96.10
19168;DHT22;9716;53.114;18.040;2022-07-10T10:03:01;24.40;95.50
19168;DHT22;9716;53.114;18.040;2022-07-10T10:05:36;24.50;95.10
19168;DHT22;9716;53.114;18.040;2022-07-10T10:08:10;24.40;94.70
19168;DHT22;9716;53.114;18.040;2022-07-10T10:10:47;24.40;94.30
19168;DHT22;9716;53.114;18.040;2022-07-10T10:13:19;24.20;94.40
19168;DHT22;9716;53.114;18.040;2022-07-10T10:15:50;23.90;94.80
19168;DHT22;9716;53.114;18.040;2022-07-10T10:18:20;23.70;95.20
19168;DHT22;9716;53.114;18.040;2022-07-10T10:20:52;23.30;95.60
19168;DHT22;9716;53.114;18.040;2022-07-10T10:23:23;22.90;95.90
19168;DHT22;9716;53.114;18.040;2022-07-10T10:25:54;22.50;96.50
19168;DHT22;9716;53.114;18.040;2022-07-10T10:28:25;22.10;97.10
19168;DHT22;9716;53.114;18.040;2022-07-10T10:30:56;21.80;97.50
19168;DHT22;9716;53.114;18.040;2022-07-10T10:33:43;21.50;98.00
19168;DHT22;9716;53.114;18.040;2022-07-10T10:39:18;21.10;98.90
19168;DHT22;9716;53.114;18.040;2022-07-10T10:41:49;21.10;99.10
19168;DHT22;9716;53.114;18.040;2022-07-10T10:44:24;21.20;98.70
19168;DHT22;9716;53.114;18.040;2022-07-10T10:46:58;21.40;98.20
19168;DHT22;9716;53.114;18.040;2022-07-10T10:49:55;21.40;97.70
19168;DHT22;9716;53.114;18.040;2022-07-10T10:52:29;21.50;97.70
19168;DHT22;9716;53.114;18.040;2022-07-10T10:55:05;21.50;97.50
19168;DHT22;9716;53.114;18.040;2022-07-10T10:58:11;21.60;97.50
19168;DHT22;9716;53.114;18.040;2022-07-10T11:00:41;21.70;97.40
19168;DHT22;9716;53.114;18.040;2022-07-10T11:03:21;21.80;97.20
19168;DHT22;9716;53.114;18.040;2022-07-10T11:05:51;21.90;96.90
19168;DHT22;9716;53.114;18.040;2022-07-10T11:08:39;21.70;97.00
19168;DHT22;9716;53.114;18.040;2022-07-10T11:11:40;21.60;97.50
19168;DHT22;9716;53.114;18.040;2022-07-10T11:14:09;21.50;97.80
19168;DHT22;9716;53.114;18.040;2022-07-10T11:16:48;21.40;98.10
19168;DHT22;9716;53.114;18.040;2022-07-10T11:19:24;21.60;98.20
19168;DHT22;9716;53.114;18.040;2022-07-10T11:22:06;21.70;97.90
19168;DHT22;9716;53.114;18.040;2022-07-10T11:24:50;21.80;97.90
19168;DHT22;9716;53.114;18.040;2022-07-10T11:27:52;21.90;97.60
19168;DHT22;9716;53.114;18.040;2022-07-10T11:30:22;22.10;96.90
19168;DHT22;9716;53.114;18.040;2022-07-10T11:32:51;22.20;97.10
19168;DHT22;9716;53.114;18.040;2022-07-10T11:35:20;22.40;96.70
19168;DHT22;9716;53.114;18.040;2022-07-10T11:37:51;22.60;96.60
19168;DHT22;9716;53.114;18.040;2022-07-10T11:40:22;22.80;96.30
19168;DHT22;9716;53.114;18.040;2022-07-10T11:42:53;22.90;95.90
19168;DHT22;9716;53.114;18.040;2022-07-10T11:45:25;22.90;95.80
19168;DHT22;9716;53.114;18.040;2022-07-10T11:47:54;22.90;96.00
19168;DHT22;9716;53.114;18.040;2022-07-10T11:50:23;22.90;96.30
19168;DHT22;9716;53.114;18.040;2022-07-10T11:52:54;22.80;96.60
19168;DHT22;9716;53.114;18.040;2022-07-10T11:55:27;22.60;96.70
19168;DHT22;9716;53.114;18.040;2022-07-10T11:57:58;22.50;96.40
19168;DHT22;9716;53.114;18.040;2022-07-10T12:00:29;22.30;96.20
19168;DHT22;9716;53.114;18.040;2022-07-10T12:03:17;22.20;96.00
19168;DHT22;9716;53.114;18.040;2022-07-10T12:05:52;22.10;95.90
19168;DHT22;9716;53.114;18.040;2022-07-10T12:08:20;22.20;96.20
19168;DHT22;9716;53.114;18.040;2022-07-10T12:10:49;22.30;96.10
19168;DHT22;9716;53.114;18.040;2022-07-10T12:13:21;22.50;95.70
19168;DHT22;9716;53.114;18.040;2022-07-10T12:15:50;22.60;95.50
19168;DHT22;9716;53.114;18.040;2022-07-10T12:18:20;22.90;95.50
19168;DHT22;9716;53.114;18.040;2022-07-10T12:20:50;23.20;95.20
19168;DHT22;9716;53.114;18.040;2022-07-10T12:23:21;23.50;94.60
19168;DHT22;9716;53.114;18.040;2022-07-10T12:25:50;23.60;94.10
19168;DHT22;9716;53.114;18.040;2022-07-10T12:28:21;23.70;94.00
19168;DHT22;9716;53.114;18.040;2022-07-10T12:30:49;23.70;93.80
19168;DHT22;9716;53.114;18.040;2022-07-10T12:33:21;23.40;94.20
19168;DHT22;9716;53.114;18.040;2022-07-10T12:36:12;22.90;94.90
19168;DHT22;9716;53.114;18.040;2022-07-10T12:38:41;22.40;95.80
19168;DHT22;9716;53.114;18.040;2022-07-10T12:41:11;21.90;96.60
19168;DHT22;9716;53.114;18.040;2022-07-10T12:43:42;21.60;97.40
19168;DHT22;9716;53.114;18.040;2022-07-10T12:46:15;21.30;98.00
19168;DHT22;9716;53.114;18.040;2022-07-10T12:49:04;21.10;98.60
19168;DHT22;9716;53.114;18.040;2022-07-10T12:51:34;20.80;99.20
19168;DHT22;9716;53.114;18.040;2022-07-10T12:54:33;20.50;99.90
19168;DHT22;9716;53.114;18.040;2022-07-10T12:57:04;20.20;99.90
19168;DHT22;9716;53.114;18.040;2022-07-10T12:59:36;20.00;99.90
19168;DHT22;9716;53.114;18.040;2022-07-10T13:02:16;19.90;99.90
19168;DHT22;9716;53.114;18.040;2022-07-10T13:04:52;19.80;99.90
19168;DHT22;9716;53.114;18.040;2022-07-10T13:07:29;19.80;99.90
19168;DHT22;9716;53.114;18.040;2022-07-10T13:09:59;19.80;99.90
19168;DHT22;9716;53.114;18.040;2022-07-10T13:12:33;19.80;99.90
19168;DHT22;9716;53.114;18.040;2022-07-10T13:15:04;19.80;99.90
19168;DHT22;9716;53.114;18.040;2022-07-10T13:17:33;19.80;99.90
19168;DHT22;9716;53.114;18.040;2022-07-10T13:20:02;19.80;99.90
19168;DHT22;9716;53.114;18.040;2022-07-10T13:22:31;19.80;99.90
19168;DHT22;9716;53.114;18.040;2022-07-10T13:25:00;19.80;99.90
19168;DHT22;9716;53.114;18.040;2022-07-10T13:27:28;19.90;99.90
19168;DHT22;9716;53.114;18.040;2022-07-10T13:29:59;19.90;99.90
19168;DHT22;9716;53.114;18.040;2022-07-10T13:32:29;19.90;99.90
19168;DHT22;9716;53.114;18.040;2022-07-10T13:34:58;20.00;99.90
19168;DHT22;9716;53.114;18.040;2022-07-10T13:37:26;20.00;99.90
19168;DHT22;9716;53.114;18.040;2022-07-10T13:39:56;20.10;99.90
19168;DHT22;9716;53.114;18.040;2022-07-10T13:42:25;20.10;99.90
19168;DHT22;9716;53.114;18.040;2022-07-10T13:44:54;20.20;99.90
19168;DHT22;9716;53.114;18.040;2022-07-10T13:47:23;20.30;99.90
19168;DHT22;9716;53.114;18.040;2022-07-10T13:49:54;20.30;99.90
19168;DHT22;9716;53.114;18.040;2022-07-10T13:52:22;20.30;99.90
19168;DHT22;9716;53.114;18.040;2022-07-10T13:54:51;20.40;99.90
19168;DHT22;9716;53.114;18.040;2022-07-10T13:57:20;20.40;99.90
19168;DHT22;9716;53.114;18.040;2022-07-10T13:59:49;20.40;99.90
19168;DHT22;9716;53.114;18.040;2022-07-10T14:02:18;20.40;99.90
19168;DHT22;9716;53.114;18.040;2022-07-10T14:04:47;20.30;99.90
19168;DHT22;9716;53.114;18.040;2022-07-10T14:07:17;20.30;99.90
19168;DHT22;9716;53.114;18.040;2022-07-10T14:09:46;20.30;99.90
19168;DHT22;9716;53.114;18.040;2022-07-10T14:12:15;20.20;99.90
19168;DHT22;9716;53.114;18.040;2022-07-10T14:14:44;20.10;99.90
19168;DHT22;9716;53.114;18.040;2022-07-10T14:17:13;20.00;99.90
19168;DHT22;9716;53.114;18.040;2022-07-10T14:19:41;19.90;99.90
19168;DHT22;9716;53.114;18.040;2022-07-10T14:22:10;19.80;99.90
19168;DHT22;9716;53.114;18.040;2022-07-10T14:24:41;19.80;99.90
19168;DHT22;9716;53.114;18.040;2022-07-10T14:27:09;19.80;99.90
19168;DHT22;9716;53.114;18.040;2022-07-10T14:29:38;19.80;99.90
19168;DHT22;9716;53.114;18.040;2022-07-10T14:32:08;19.80;99.90
19168;DHT22;9716;53.114;18.040;2022-07-10T14:34:37;19.80;99.90
19168;DHT22;9716;53.114;18.040;2022-07-10T14:37:06;19.80;99.90
19168;DHT22;9716;53.114;18.040;2022-07-10T14:39:34;19.90;99.90
19168;DHT22;9716;53.114;18.040;2022-07-10T14:42:05;20.00;99.90
19168;DHT22;9716;53.114;18.040;2022-07-10T14:44:33;20.00;99.90
19168;DHT22;9716;53.114;18.040;2022-07-10T14:47:03;20.10;99.90
19168;DHT22;9716;53.114;18.040;2022-07-10T14:49:32;20.10;99.90
19168;DHT22;9716;53.114;18.040;2022-07-10T14:52:01;20.30;99.90
19168;DHT22;9716;53.114;18.040;2022-07-10T14:54:30;20.30;99.90
19168;DHT22;9716;53.114;18.040;2022-07-10T14:56:58;20.40;99.90
19168;DHT22;9716;53.114;18.040;2022-07-10T14:59:32;20.50;99.90
19168;DHT22;9716;53.114;18.040;2022-07-10T15:02:01;20.50;99.90
19168;DHT22;9716;53.114;18.040;2022-07-10T15:04:30;20.50;99.90
19168;DHT22;9716;53.114;18.040;2022-07-10T15:06:59;20.50;99.90
19168;DHT22;9716;53.114;18.040;2022-07-10T15:09:27;20.50;99.90
19168;DHT22;9716;53.114;18.040;2022-07-10T15:11:56;20.40;99.90
19168;DHT22;9716;53.114;18.040;2022-07-10T15:14:25;20.30;99.90
19168;DHT22;9716;53.114;18.040;2022-07-10T15:16:57;20.20;99.90
19168;DHT22;9716;53.114;18.040;2022-07-10T15:19:26;20.10;99.90
19168;DHT22;9716;53.114;18.040;2022-07-10T15:21:55;20.00;99.90
19168;DHT22;9716;53.114;18.040;2022-07-10T15:24:24;19.90;99.90
19168;DHT22;9716;53.114;18.040;2022-07-10T15:26:53;19.80;99.90
19168;DHT22;9716;53.114;18.040;2022-07-10T15:29:22;19.80;99.90
19168;DHT22;9716;53.114;18.040;2022-07-10T15:31:52;19.80;99.90
19168;DHT22;9716;53.114;18.040;2022-07-10T15:34:27;19.80;99.90
19168;DHT22;9716;53.114;18.040;2022-07-10T15:36:56;19.80;99.90
19168;DHT22;9716;53.114;18.040;2022-07-10T15:39:24;19.80;99.90
19168;DHT22;9716;53.114;18.040;2022-07-10T15:41:53;19.90;99.90
19168;DHT22;9716;53.114;18.040;2022-07-10T15:44:22;19.90;99.90
19168;DHT22;9716;53.114;18.040;2022-07-10T15:46:52;20.00;99.90
19168;DHT22;9716;53.114;18.040;2022-07-10T15:49:21;19.90;99.90
19168;DHT22;9716;53.114;18.040;2022-07-10T15:51:52;19.80;99.90
19168;DHT22;9716;53.114;18.040;2022-07-10T15:54:22;19.60;99.90
19168;DHT22;9716;53.114;18.040;2022-07-10T15:56:51;19.40;99.90
19168;DHT22;9716;53.114;18.040;2022-07-10T15:59:19;19.10;99.90
19168;DHT22;9716;53.114;18.040;2022-07-10T16:01:51;18.80;99.90
19168;DHT22;9716;53.114;18.040;2022-07-10T16:04:20;18.50;99.90